sensor_id;sensor_type;location;lat;lon;timestamp;temperature;humidity
67974;DHT22;54756;51.140;6.952;2022-09-24T00:00:47;13.00;62.80
67974;DHT22;54756;51.140;6.952;2022-09-24T00:02:52;13.00;62.70
67974;DHT22;54756;51.140;6.952;2022-09-24T00:04:53;13.00;62.90
67974;DHT22;54756;51.140;6.952;2022-09-24T00:06:53;13.00;63.00
67974;DHT22;54756;51.140;6.952;2022-09-24T00:08:55;12.90;63.80
67974;DHT22;54756;51.140;6.952;2022-09-24T00:10:55;12.90;63.10
67974;DHT22;54756;51.140;6.952;2022-09-24T00:12:56;12.80;63.40
67974;DHT22;54756;51.140;6.952;2022-09-24T00:14:57;12.80;63.60
67974;DHT22;54756;51.140;6.952;2022-09-24T00:16:57;12.80;65.00
67974;DHT22;54756;51.140;6.952;2022-09-24T00:18:58;12.70;65.00
67974;DHT22;54756;51.140;6.952;2022-09-24T00:20:59;12.70;64.50
67974;DHT22;54756;51.140;6.952;2022-09-24T00:23:00;12.70;64.40
67974;DHT22;54756;51.140;6.952;2022-09-24T00:25:01;12.60;64.60
67974;DHT22;54756;51.140;6.952;2022-09-24T00:27:20;12.50;64.70
67974;DHT22;54756;51.140;6.952;2022-09-24T00:29:22;12.50;65.00
67974;DHT22;54756;51.140;6.952;2022-09-24T00:31:23;12.40;65.40
67974;DHT22;54756;51.140;6.952;2022-09-24T00:33:25;12.40;65.70
67974;DHT22;54756;51.140;6.952;2022-09-24T00:35:27;12.40;66.10
67974;DHT22;54756;51.140;6.952;2022-09-24T00:37:30;12.30;66.40
67974;DHT22;54756;51.140;6.952;2022-09-24T00:39:31;12.30;66.90
67974;DHT22;54756;51.140;6.952;2022-09-24T00:41:34;12.30;67.30
67974;DHT22;54756;51.140;6.952;2022-09-24T00:43:36;12.30;67.60
67974;DHT22;54756;51.140;6.952;2022-09-24T00:45:37;12.30;68.20
67974;DHT22;54756;51.140;6.952;2022-09-24T00:47:41;12.40;68.70
67974;DHT22;54756;51.140;6.952;2022-09-24T00:49:43;12.40;69.00
67974;DHT22;54756;51.140;6.952;2022-09-24T00:51:50;12.50;69.20
67974;DHT22;54756;51.140;6.952;2022-09-24T00:53:55;12.50;69.30
67974;DHT22;54756;51.140;6.952;2022-09-24T00:56:00;12.50;69.30
67974;DHT22;54756;51.140;6.952;2022-09-24T00:58:03;12.60;69.30
67974;DHT22;54756;51.140;6.952;2022-09-24T01:00:05;12.60;69.60
67974;DHT22;54756;51.140;6.952;2022-09-24T01:02:07;12.60;68.90
67974;DHT22;54756;51.140;6.952;2022-09-24T01:04:08;12.70;68.70
67974;DHT22;54756;51.140;6.952;2022-09-24T01:06:10;12.70;68.80
67974;DHT22;54756;51.140;6.952;2022-09-24T01:08:12;12.70;68.80
67974;DHT22;54756;51.140;6.952;2022-09-24T01:10:15;12.70;68.80
67974;DHT22;54756;51.140;6.952;2022-09-24T01:12:54;12.80;68.80
67974;DHT22;54756;51.140;6.952;2022-09-24T01:17:59;12.80;68.70
67974;DHT22;54756;51.140;6.952;2022-09-24T01:27:16;12.90;70.20
67974;DHT22;54756;51.140;6.952;2022-09-24T01:31:40;12.90;69.30
67974;DHT22;54756;51.140;6.952;2022-09-24T01:33:48;12.90;68.30
67974;DHT22;54756;51.140;6.952;2022-09-24T01:35:56;12.90;68.40
67974;DHT22;54756;51.140;6.952;2022-09-24T01:38:48;12.90;68.30
67974;DHT22;54756;51.140;6.952;2022-09-24T01:40:24;12.90;69.40
67974;DHT22;54756;51.140;6.952;2022-09-24T01:42:28;12.90;68.60
67974;DHT22;54756;51.140;6.952;2022-09-24T01:44:30;12.80;68.60
67974;DHT22;54756;51.140;6.952;2022-09-24T01:46:31;12.80;68.30
67974;DHT22;54756;51.140;6.952;2022-09-24T01:48:35;12.80;68.60
67974;DHT22;54756;51.140;6.952;2022-09-24T01:50:47;12.70;68.30
67974;DHT22;54756;51.140;6.952;2022-09-24T01:53:20;12.70;68.30
67974;DHT22;54756;51.140;6.952;2022-09-24T01:55:22;12.70;68.60
67974;DHT22;54756;51.140;6.952;2022-09-24T01:57:28;12.60;68.90
67974;DHT22;54756;51.140;6.952;2022-09-24T01:59:42;12.60;69.30
67974;DHT22;54756;51.140;6.952;2022-09-24T02:01:49;12.60;69.20
67974;DHT22;54756;51.140;6.952;2022-09-24T02:03:58;12.60;69.20
67974;DHT22;54756;51.140;6.952;2022-09-24T02:06:08;12.60;69.40
67974;DHT22;54756;51.140;6.952;2022-09-24T02:08:17;12.60;69.80
67974;DHT22;54756;51.140;6.952;2022-09-24T02:10:20;12.50;69.70
67974;DHT22;54756;51.140;6.952;2022-09-24T02:12:27;12.50;72.10
67974;DHT22;54756;51.140;6.952;2022-09-24T02:14:30;12.50;70.90
67974;DHT22;54756;51.140;6.952;2022-09-24T02:16:36;12.50;70.60
67974;DHT22;54756;51.140;6.952;2022-09-24T02:18:39;12.50;70.70
67974;DHT22;54756;51.140;6.952;2022-09-24T02:20:42;12.50;70.80
67974;DHT22;54756;51.140;6.952;2022-09-24T02:22:44;12.50;71.10
67974;DHT22;54756;51.140;6.952;2022-09-24T02:24:51;12.50;71.20
67974;DHT22;54756;51.140;6.952;2022-09-24T02:26:53;12.50;71.20
67974;DHT22;54756;51.140;6.952;2022-09-24T02:28:54;12.50;71.70
67974;DHT22;54756;51.140;6.952;2022-09-24T02:31:07;12.50;71.60
67974;DHT22;54756;51.140;6.952;2022-09-24T02:33:11;12.50;71.80
67974;DHT22;54756;51.140;6.952;2022-09-24T02:35:32;12.50;71.50
67974;DHT22;54756;51.140;6.952;2022-09-24T02:37:38;12.50;71.20
67974;DHT22;54756;51.140;6.952;2022-09-24T02:39:40;12.50;71.10
67974;DHT22;54756;51.140;6.952;2022-09-24T02:41:40;12.50;70.90
67974;DHT22;54756;51.140;6.952;2022-09-24T02:43:47;12.60;71.00
67974;DHT22;54756;51.140;6.952;2022-09-24T02:45:47;12.50;70.80
67974;DHT22;54756;51.140;6.952;2022-09-24T02:47:48;12.50;70.20
67974;DHT22;54756;51.140;6.952;2022-09-24T02:49:48;12.50;69.70
67974;DHT22;54756;51.140;6.952;2022-09-24T02:51:49;12.40;69.60
67974;DHT22;54756;51.140;6.952;2022-09-24T02:53:49;12.40;69.60
67974;DHT22;54756;51.140;6.952;2022-09-24T02:55:50;12.30;69.50
67974;DHT22;54756;51.140;6.952;2022-09-24T02:57:50;12.30;71.50
67974;DHT22;54756;51.140;6.952;2022-09-24T02:59:51;12.20;71.00
67974;DHT22;54756;51.140;6.952;2022-09-24T03:01:51;12.20;71.00
67974;DHT22;54756;51.140;6.952;2022-09-24T03:03:52;12.20;71.00
67974;DHT22;54756;51.140;6.952;2022-09-24T03:05:53;12.20;71.40
67974;DHT22;54756;51.140;6.952;2022-09-24T03:07:54;12.20;72.50
67974;DHT22;54756;51.140;6.952;2022-09-24T03:09:55;12.20;75.10
67974;DHT22;54756;51.140;6.952;2022-09-24T03:11:55;12.20;74.30
67974;DHT22;54756;51.140;6.952;2022-09-24T03:14:00;12.20;73.60
67974;DHT22;54756;51.140;6.952;2022-09-24T03:16:01;12.20;74.10
67974;DHT22;54756;51.140;6.952;2022-09-24T03:18:01;12.30;74.40
67974;DHT22;54756;51.140;6.952;2022-09-24T03:20:03;12.30;74.70
67974;DHT22;54756;51.140;6.952;2022-09-24T03:22:03;12.30;75.30
67974;DHT22;54756;51.140;6.952;2022-09-24T03:24:04;12.30;74.50
67974;DHT22;54756;51.140;6.952;2022-09-24T03:26:05;12.30;74.70
67974;DHT22;54756;51.140;6.952;2022-09-24T03:28:05;12.40;73.20
67974;DHT22;54756;51.140;6.952;2022-09-24T03:30:06;12.40;72.80
67974;DHT22;54756;51.140;6.952;2022-09-24T03:32:26;12.40;73.30
67974;DHT22;54756;51.140;6.952;2022-09-24T03:34:27;12.40;72.80
67974;DHT22;54756;51.140;6.952;2022-09-24T03:36:27;12.40;72.70
67974;DHT22;54756;51.140;6.952;2022-09-24T03:38:28;12.30;72.90
67974;DHT22;54756;51.140;6.952;2022-09-24T03:40:32;12.30;72.70
67974;DHT22;54756;51.140;6.952;2022-09-24T03:42:32;12.30;72.20
67974;DHT22;54756;51.140;6.952;2022-09-24T03:44:34;12.30;71.70
67974;DHT22;54756;51.140;6.952;2022-09-24T03:46:34;12.30;72.00
67974;DHT22;54756;51.140;6.952;2022-09-24T03:48:36;12.30;72.20
67974;DHT22;54756;51.140;6.952;2022-09-24T03:50:37;12.20;72.30
67974;DHT22;54756;51.140;6.952;2022-09-24T03:52:38;12.20;72.30
67974;DHT22;54756;51.140;6.952;2022-09-24T03:54:39;12.20;73.00
67974;DHT22;54756;51.140;6.952;2022-09-24T03:56:39;12.20;72.60
67974;DHT22;54756;51.140;6.952;2022-09-24T03:58:40;12.20;73.30
67974;DHT22;54756;51.140;6.952;2022-09-24T04:00:41;12.10;72.20
67974;DHT22;54756;51.140;6.952;2022-09-24T04:02:42;12.10;71.80
67974;DHT22;54756;51.140;6.952;2022-09-24T04:04:42;12.10;72.70
67974;DHT22;54756;51.140;6.952;2022-09-24T04:06:43;12.10;72.60
67974;DHT22;54756;51.140;6.952;2022-09-24T04:08:44;12.00;72.50
67974;DHT22;54756;51.140;6.952;2022-09-24T04:10:46;12.00;73.00
67974;DHT22;54756;51.140;6.952;2022-09-24T04:12:46;12.00;73.00
67974;DHT22;54756;51.140;6.952;2022-09-24T04:14:47;12.00;73.20
67974;DHT22;54756;51.140;6.952;2022-09-24T04:16:48;12.00;73.60
67974;DHT22;54756;51.140;6.952;2022-09-24T04:18:48;12.00;73.90
67974;DHT22;54756;51.140;6.952;2022-09-24T04:20:50;12.00;73.70
67974;DHT22;54756;51.140;6.952;2022-09-24T04:22:52;12.10;73.90
67974;DHT22;54756;51.140;6.952;2022-09-24T04:24:55;12.10;73.70
67974;DHT22;54756;51.140;6.952;2022-09-24T04:26:56;12.10;73.50
67974;DHT22;54756;51.140;6.952;2022-09-24T04:28:56;12.10;73.30
67974;DHT22;54756;51.140;6.952;2022-09-24T04:30:58;12.10;73.20
67974;DHT22;54756;51.140;6.952;2022-09-24T04:32:59;12.10;73.20
67974;DHT22;54756;51.140;6.952;2022-09-24T04:35:00;12.10;73.20
67974;DHT22;54756;51.140;6.952;2022-09-24T04:37:00;12.10;73.60
67974;DHT22;54756;51.140;6.952;2022-09-24T04:39:01;12.10;73.50
67974;DHT22;54756;51.140;6.952;2022-09-24T04:41:07;12.10;73.30
67974;DHT22;54756;51.140;6.952;2022-09-24T04:43:07;12.10;73.20
67974;DHT22;54756;51.140;6.952;2022-09-24T04:45:09;12.10;73.20
67974;DHT22;54756;51.140;6.952;2022-09-24T04:47:10;12.10;73.20
67974;DHT22;54756;51.140;6.952;2022-09-24T04:49:10;12.10;73.20
67974;DHT22;54756;51.140;6.952;2022-09-24T04:51:11;12.10;73.30
67974;DHT22;54756;51.140;6.952;2022-09-24T04:53:12;12.10;73.40
67974;DHT22;54756;51.140;6.952;2022-09-24T04:55:12;12.10;73.40
67974;DHT22;54756;51.140;6.952;2022-09-24T04:57:13;12.10;73.30
67974;DHT22;54756;51.140;6.952;2022-09-24T04:59:14;12.10;73.30
67974;DHT22;54756;51.140;6.952;2022-09-24T05:01:14;12.10;73.20
67974;DHT22;54756;51.140;6.952;2022-09-24T05:03:15;12.10;73.20
67974;DHT22;54756;51.140;6.952;2022-09-24T05:05:16;12.00;73.10
67974;DHT22;54756;51.140;6.952;2022-09-24T05:07:17;12.00;73.10
67974;DHT22;54756;51.140;6.952;2022-09-24T05:09:17;12.00;73.30
67974;DHT22;54756;51.140;6.952;2022-09-24T05:11:18;12.00;73.40
67974;DHT22;54756;51.140;6.952;2022-09-24T05:13:19;12.00;73.50
67974;DHT22;54756;51.140;6.952;2022-09-24T05:15:21;12.00;73.40
67974;DHT22;54756;51.140;6.952;2022-09-24T05:17:21;12.00;73.30
67974;DHT22;54756;51.140;6.952;2022-09-24T05:19:22;12.00;73.40
67974;DHT22;54756;51.140;6.952;2022-09-24T05:21:23;12.00;73.30
67974;DHT22;54756;51.140;6.952;2022-09-24T05:23:23;12.00;73.40
67974;DHT22;54756;51.140;6.952;2022-09-24T05:25:24;12.00;73.40
67974;DHT22;54756;51.140;6.952;2022-09-24T05:27:24;12.00;73.60
67974;DHT22;54756;51.140;6.952;2022-09-24T05:29:25;12.00;73.60
67974;DHT22;54756;51.140;6.952;2022-09-24T05:31:26;12.00;73.70
67974;DHT22;54756;51.140;6.952;2022-09-24T05:33:27;12.00;73.80
67974;DHT22;54756;51.140;6.952;2022-09-24T05:35:27;12.00;74.10
67974;DHT22;54756;51.140;6.952;2022-09-24T05:37:28;12.00;74.40
67974;DHT22;54756;51.140;6.952;2022-09-24T05:39:29;12.00;74.70
67974;DHT22;54756;51.140;6.952;2022-09-24T05:41:30;12.00;74.70
67974;DHT22;54756;51.140;6.952;2022-09-24T05:43:30;11.90;74.40
67974;DHT22;54756;51.140;6.952;2022-09-24T05:45:31;12.00;74.90
67974;DHT22;54756;51.140;6.952;2022-09-24T05:47:32;12.00;74.70
67974;DHT22;54756;51.140;6.952;2022-09-24T05:49:32;12.00;74.80
67974;DHT22;54756;51.140;6.952;2022-09-24T05:51:33;12.00;74.20
67974;DHT22;54756;51.140;6.952;2022-09-24T05:53:33;12.00;74.10
67974;DHT22;54756;51.140;6.952;2022-09-24T05:55:34;12.00;73.70
67974;DHT22;54756;51.140;6.952;2022-09-24T05:57:35;12.00;73.30
67974;DHT22;54756;51.140;6.952;2022-09-24T05:59:36;12.00;72.80
67974;DHT22;54756;51.140;6.952;2022-09-24T06:01:36;12.00;72.70
67974;DHT22;54756;51.140;6.952;2022-09-24T06:03:37;12.00;72.80
67974;DHT22;54756;51.140;6.952;2022-09-24T06:05:38;12.00;72.80
67974;DHT22;54756;51.140;6.952;2022-09-24T06:07:39;12.10;72.70
67974;DHT22;54756;51.140;6.952;2022-09-24T06:09:39;12.10;72.70
67974;DHT22;54756;51.140;6.952;2022-09-24T06:11:40;12.10;72.60
67974;DHT22;54756;51.140;6.952;2022-09-24T06:13:41;12.10;72.60
67974;DHT22;54756;51.140;6.952;2022-09-24T06:15:43;12.10;72.60
67974;DHT22;54756;51.140;6.952;2022-09-24T06:17:43;12.10;72.40
67974;DHT22;54756;51.140;6.952;2022-09-24T06:19:44;12.10;72.60
67974;DHT22;54756;51.140;6.952;2022-09-24T06:21:46;12.10;72.60
67974;DHT22;54756;51.140;6.952;2022-09-24T06:23:47;12.20;72.70
67974;DHT22;54756;51.140;6.952;2022-09-24T06:25:49;12.20;72.70
67974;DHT22;54756;51.140;6.952;2022-09-24T06:27:58;12.20;72.70
67974;DHT22;54756;51.140;6.952;2022-09-24T06:30:02;12.30;72.50
67974;DHT22;54756;51.140;6.952;2022-09-24T06:32:04;12.40;72.40
67974;DHT22;54756;51.140;6.952;2022-09-24T06:34:04;12.40;72.20
67974;DHT22;54756;51.140;6.952;2022-09-24T06:36:05;12.50;72.20
67974;DHT22;54756;51.140;6.952;2022-09-24T06:38:09;12.50;71.70
67974;DHT22;54756;51.140;6.952;2022-09-24T06:40:10;12.60;71.40
67974;DHT22;54756;51.140;6.952;2022-09-24T06:42:10;12.70;71.00
67974;DHT22;54756;51.140;6.952;2022-09-24T06:44:11;12.70;70.80
67974;DHT22;54756;51.140;6.952;2022-09-24T06:46:11;12.80;70.50
67974;DHT22;54756;51.140;6.952;2022-09-24T06:48:14;12.80;70.00
67974;DHT22;54756;51.140;6.952;2022-09-24T06:50:15;12.90;70.10
67974;DHT22;54756;51.140;6.952;2022-09-24T06:52:16;13.00;69.60
67974;DHT22;54756;51.140;6.952;2022-09-24T06:54:16;13.00;69.20
67974;DHT22;54756;51.140;6.952;2022-09-24T06:56:17;13.10;68.90
67974;DHT22;54756;51.140;6.952;2022-09-24T06:58:19;13.20;68.80
67974;DHT22;54756;51.140;6.952;2022-09-24T07:00:20;13.30;68.30
67974;DHT22;54756;51.140;6.952;2022-09-24T07:02:20;13.40;68.10
67974;DHT22;54756;51.140;6.952;2022-09-24T07:04:21;13.40;67.10
67974;DHT22;54756;51.140;6.952;2022-09-24T07:06:21;13.50;65.60
67974;DHT22;54756;51.140;6.952;2022-09-24T07:08:22;13.60;65.40
67974;DHT22;54756;51.140;6.952;2022-09-24T07:10:22;13.70;65.00
67974;DHT22;54756;51.140;6.952;2022-09-24T07:12:25;13.80;63.30
67974;DHT22;54756;51.140;6.952;2022-09-24T07:14:25;13.90;63.30
67974;DHT22;54756;51.140;6.952;2022-09-24T07:16:26;13.90;63.30
67974;DHT22;54756;51.140;6.952;2022-09-24T07:18:26;14.00;62.60
67974;DHT22;54756;51.140;6.952;2022-09-24T07:20:27;14.10;61.90
67974;DHT22;54756;51.140;6.952;2022-09-24T07:22:28;14.20;61.50
67974;DHT22;54756;51.140;6.952;2022-09-24T07:24:28;14.30;60.20
67974;DHT22;54756;51.140;6.952;2022-09-24T07:26:29;14.40;59.90
67974;DHT22;54756;51.140;6.952;2022-09-24T07:28:29;14.50;59.50
67974;DHT22;54756;51.140;6.952;2022-09-24T07:30:32;14.60;58.40
67974;DHT22;54756;51.140;6.952;2022-09-24T07:32:33;14.70;58.00
67974;DHT22;54756;51.140;6.952;2022-09-24T07:34:33;14.80;58.00
67974;DHT22;54756;51.140;6.952;2022-09-24T07:36:34;14.80;58.10
67974;DHT22;54756;51.140;6.952;2022-09-24T07:38:34;14.90;57.90
67974;DHT22;54756;51.140;6.952;2022-09-24T07:40:38;15.10;57.70
67974;DHT22;54756;51.140;6.952;2022-09-24T07:42:46;15.20;56.90
67974;DHT22;54756;51.140;6.952;2022-09-24T07:44:47;15.30;55.70
67974;DHT22;54756;51.140;6.952;2022-09-24T07:46:49;15.40;54.70
67974;DHT22;54756;51.140;6.952;2022-09-24T07:48:52;15.50;54.10
67974;DHT22;54756;51.140;6.952;2022-09-24T07:50:53;15.60;53.80
67974;DHT22;54756;51.140;6.952;2022-09-24T07:52:54;15.70;53.80
67974;DHT22;54756;51.140;6.952;2022-09-24T07:54:55;15.80;53.30
67974;DHT22;54756;51.140;6.952;2022-09-24T07:56:55;15.90;52.10
67974;DHT22;54756;51.140;6.952;2022-09-24T07:58:56;15.90;53.10
67974;DHT22;54756;51.140;6.952;2022-09-24T08:00:57;16.00;51.80
67974;DHT22;54756;51.140;6.952;2022-09-24T08:03:00;16.10;50.50
67974;DHT22;54756;51.140;6.952;2022-09-24T08:05:01;16.20;50.30
67974;DHT22;54756;51.140;6.952;2022-09-24T08:07:01;16.30;49.10
67974;DHT22;54756;51.140;6.952;2022-09-24T08:09:03;16.30;48.40
67974;DHT22;54756;51.140;6.952;2022-09-24T08:11:05;16.30;47.60
67974;DHT22;54756;51.140;6.952;2022-09-24T08:13:06;16.40;47.40
67974;DHT22;54756;51.140;6.952;2022-09-24T08:15:06;16.40;47.90
67974;DHT22;54756;51.140;6.952;2022-09-24T08:17:07;16.40;47.10
67974;DHT22;54756;51.140;6.952;2022-09-24T08:19:08;16.40;46.60
67974;DHT22;54756;51.140;6.952;2022-09-24T08:21:13;16.50;44.90
67974;DHT22;54756;51.140;6.952;2022-09-24T08:23:14;16.50;45.10
67974;DHT22;54756;51.140;6.952;2022-09-24T08:25:15;16.50;44.70
67974;DHT22;54756;51.140;6.952;2022-09-24T08:27:16;16.60;44.00
67974;DHT22;54756;51.140;6.952;2022-09-24T08:29:17;16.60;43.30
67974;DHT22;54756;51.140;6.952;2022-09-24T08:31:17;16.70;42.90
67974;DHT22;54756;51.140;6.952;2022-09-24T08:33:18;16.70;41.70
67974;DHT22;54756;51.140;6.952;2022-09-24T08:35:18;16.70;41.70
67974;DHT22;54756;51.140;6.952;2022-09-24T08:37:19;16.80;41.50
67974;DHT22;54756;51.140;6.952;2022-09-24T08:39:20;16.90;39.60
67974;DHT22;54756;51.140;6.952;2022-09-24T08:45:52;17.00;36.90
67974;DHT22;54756;51.140;6.952;2022-09-24T08:48:21;17.10;36.90
67974;DHT22;54756;51.140;6.952;2022-09-24T08:50:33;17.20;35.60
67974;DHT22;54756;51.140;6.952;2022-09-24T08:54:43;17.30;36.50
67974;DHT22;54756;51.140;6.952;2022-09-24T08:56:45;17.30;37.70
67974;DHT22;54756;51.140;6.952;2022-09-24T08:59:00;17.30;36.90
67974;DHT22;54756;51.140;6.952;2022-09-24T09:06:02;17.40;39.30
67974;DHT22;54756;51.140;6.952;2022-09-24T09:08:18;17.50;41.20
67974;DHT22;54756;51.140;6.952;2022-09-24T09:10:25;17.70;38.90
67974;DHT22;54756;51.140;6.952;2022-09-24T09:12:41;17.70;37.30
67974;DHT22;54756;51.140;6.952;2022-09-24T09:15:03;17.80;39.10
67974;DHT22;54756;51.140;6.952;2022-09-24T09:19:34;17.90;40.40
67974;DHT22;54756;51.140;6.952;2022-09-24T09:21:42;18.00;38.10
67974;DHT22;54756;51.140;6.952;2022-09-24T09:23:48;18.00;39.30
67974;DHT22;54756;51.140;6.952;2022-09-24T09:25:53;18.00;40.20
67974;DHT22;54756;51.140;6.952;2022-09-24T09:28:13;18.00;38.80
67974;DHT22;54756;51.140;6.952;2022-09-24T09:30:16;18.00;35.70
67974;DHT22;54756;51.140;6.952;2022-09-24T09:41:51;18.00;37.60
67974;DHT22;54756;51.140;6.952;2022-09-24T09:44:00;18.00;35.00
67974;DHT22;54756;51.140;6.952;2022-09-24T09:46:23;18.00;36.80
67974;DHT22;54756;51.140;6.952;2022-09-24T09:48:29;18.10;38.40
67974;DHT22;54756;51.140;6.952;2022-09-24T09:50:43;18.20;38.30
67974;DHT22;54756;51.140;6.952;2022-09-24T09:52:44;18.30;37.70
67974;DHT22;54756;51.140;6.952;2022-09-24T09:54:44;18.40;33.80
67974;DHT22;54756;51.140;6.952;2022-09-24T09:56:47;18.50;32.90
67974;DHT22;54756;51.140;6.952;2022-09-24T09:58:48;18.70;32.90
67974;DHT22;54756;51.140;6.952;2022-09-24T10:01:10;18.80;29.90
67974;DHT22;54756;51.140;6.952;2022-09-24T10:03:25;18.90;30.50
67974;DHT22;54756;51.140;6.952;2022-09-24T10:05:29;19.00;30.00
67974;DHT22;54756;51.140;6.952;2022-09-24T10:07:30;19.10;27.70
67974;DHT22;54756;51.140;6.952;2022-09-24T10:09:31;19.10;27.50
67974;DHT22;54756;51.140;6.952;2022-09-24T10:11:32;19.20;25.40
67974;DHT22;54756;51.140;6.952;2022-09-24T10:13:32;19.20;26.80
67974;DHT22;54756;51.140;6.952;2022-09-24T10:15:33;19.30;27.70
67974;DHT22;54756;51.140;6.952;2022-09-24T10:17:36;19.40;26.50
67974;DHT22;54756;51.140;6.952;2022-09-24T10:19:39;19.40;26.10
67974;DHT22;54756;51.140;6.952;2022-09-24T10:21:41;19.60;23.70
67974;DHT22;54756;51.140;6.952;2022-09-24T10:23:43;19.60;20.90
67974;DHT22;54756;51.140;6.952;2022-09-24T10:25:51;19.70;21.00
67974;DHT22;54756;51.140;6.952;2022-09-24T10:27:58;19.70;22.00
67974;DHT22;54756;51.140;6.952;2022-09-24T10:30:23;19.70;23.10
67974;DHT22;54756;51.140;6.952;2022-09-24T10:32:33;19.80;19.80
67974;DHT22;54756;51.140;6.952;2022-09-24T10:34:33;19.70;15.50
67974;DHT22;54756;51.140;6.952;2022-09-24T10:36:34;19.70;17.30
67974;DHT22;54756;51.140;6.952;2022-09-24T10:38:34;19.70;16.90
67974;DHT22;54756;51.140;6.952;2022-09-24T10:40:39;19.60;17.90
67974;DHT22;54756;51.140;6.952;2022-09-24T10:42:40;19.60;19.70
67974;DHT22;54756;51.140;6.952;2022-09-24T10:44:40;19.70;15.70
67974;DHT22;54756;51.140;6.952;2022-09-24T10:51:45;19.50;14.70
67974;DHT22;54756;51.140;6.952;2022-09-24T10:54:28;19.50;16.10
67974;DHT22;54756;51.140;6.952;2022-09-24T10:56:40;19.50;14.90
67974;DHT22;54756;51.140;6.952;2022-09-24T11:01:47;19.60;15.10
67974;DHT22;54756;51.140;6.952;2022-09-24T11:16:14;19.60;13.50
67974;DHT22;54756;51.140;6.952;2022-09-24T11:18:45;19.60;11.80
67974;DHT22;54756;51.140;6.952;2022-09-24T11:23:22;19.70;10.40
67974;DHT22;54756;51.140;6.952;2022-09-24T11:26:10;19.80;11.90
67974;DHT22;54756;51.140;6.952;2022-09-24T11:35:24;19.80;7.30
67974;DHT22;54756;51.140;6.952;2022-09-24T11:42:11;19.50;11.30
67974;DHT22;54756;51.140;6.952;2022-09-24T11:46:55;19.30;10.50
67974;DHT22;54756;51.140;6.952;2022-09-24T11:49:25;19.10;12.10
67974;DHT22;54756;51.140;6.952;2022-09-24T11:54:02;19.00;13.20
67974;DHT22;54756;51.140;6.952;2022-09-24T11:56:23;19.00;10.50
67974;DHT22;54756;51.140;6.952;2022-09-24T11:58:31;19.00;11.90
67974;DHT22;54756;51.140;6.952;2022-09-24T12:00:37;18.90;12.50
67974;DHT22;54756;51.140;6.952;2022-09-24T12:03:04;18.90;12.40
67974;DHT22;54756;51.140;6.952;2022-09-24T12:05:08;18.90;10.00
67974;DHT22;54756;51.140;6.952;2022-09-24T12:07:15;18.90;10.90
67974;DHT22;54756;51.140;6.952;2022-09-24T12:09:39;18.90;12.40
67974;DHT22;54756;51.140;6.952;2022-09-24T12:12:03;18.90;10.70
67974;DHT22;54756;51.140;6.952;2022-09-24T12:14:24;18.90;10.80
67974;DHT22;54756;51.140;6.952;2022-09-24T12:16:27;18.90;11.70
67974;DHT22;54756;51.140;6.952;2022-09-24T12:18:43;19.10;12.70
67974;DHT22;54756;51.140;6.952;2022-09-24T12:20:57;19.20;10.80
67974;DHT22;54756;51.140;6.952;2022-09-24T12:23:10;19.20;10.40
67974;DHT22;54756;51.140;6.952;2022-09-24T12:25:12;19.30;9.90
67974;DHT22;54756;51.140;6.952;2022-09-24T12:27:15;19.40;10.40
67974;DHT22;54756;51.140;6.952;2022-09-24T12:29:39;19.50;9.70
67974;DHT22;54756;51.140;6.952;2022-09-24T12:35:20;19.80;2.30
67974;DHT22;54756;51.140;6.952;2022-09-24T12:37:11;19.90;1.30
67974;DHT22;54756;51.140;6.952;2022-09-24T12:39:16;19.90;1.00
67974;DHT22;54756;51.140;6.952;2022-09-24T12:45:34;20.10;1.00
67974;DHT22;54756;51.140;6.952;2022-09-24T12:47:38;20.20;1.00
67974;DHT22;54756;51.140;6.952;2022-09-24T12:49:55;20.20;1.00
67974;DHT22;54756;51.140;6.952;2022-09-24T12:52:15;20.20;1.00
67974;DHT22;54756;51.140;6.952;2022-09-24T12:54:36;20.30;1.00
67974;DHT22;54756;51.140;6.952;2022-09-24T12:56:37;20.40;1.00
67974;DHT22;54756;51.140;6.952;2022-09-24T13:00:42;20.50;1.00
67974;DHT22;54756;51.140;6.952;2022-09-24T13:02:46;20.60;1.00
67974;DHT22;54756;51.140;6.952;2022-09-24T13:09:38;20.70;1.00
67974;DHT22;54756;51.140;6.952;2022-09-24T13:11:39;20.60;1.00
67974;DHT22;54756;51.140;6.952;2022-09-24T13:13:40;20.60;1.00
67974;DHT22;54756;51.140;6.952;2022-09-24T13:18:20;20.50;1.00
67974;DHT22;54756;51.140;6.952;2022-09-24T13:20:24;20.40;1.00
67974;DHT22;54756;51.140;6.952;2022-09-24T13:22:35;20.30;1.00
67974;DHT22;54756;51.140;6.952;2022-09-24T13:24:48;20.20;1.00
67974;DHT22;54756;51.140;6.952;2022-09-24T13:26:49;20.20;1.00
67974;DHT22;54756;51.140;6.952;2022-09-24T13:28:54;20.10;1.00
67974;DHT22;54756;51.140;6.952;2022-09-24T13:31:07;20.10;1.00
67974;DHT22;54756;51.140;6.952;2022-09-24T13:35:21;20.00;1.00
67974;DHT22;54756;51.140;6.952;2022-09-24T13:37:33;20.00;1.00
67974;DHT22;54756;51.140;6.952;2022-09-24T13:39:42;20.00;1.00
67974;DHT22;54756;51.140;6.952;2022-09-24T13:43:58;19.80;1.60
67974;DHT22;54756;51.140;6.952;2022-09-24T13:45:59;19.90;3.10
67974;DHT22;54756;51.140;6.952;2022-09-24T13:48:05;19.80;3.60
67974;DHT22;54756;51.140;6.952;2022-09-24T13:52:27;19.70;5.50
67974;DHT22;54756;51.140;6.952;2022-09-24T13:54:32;19.60;5.40
67974;DHT22;54756;51.140;6.952;2022-09-24T13:56:33;19.50;6.90
67974;DHT22;54756;51.140;6.952;2022-09-24T13:58:38;19.30;6.40
67974;DHT22;54756;51.140;6.952;2022-09-24T14:00:41;19.20;7.00
67974;DHT22;54756;51.140;6.952;2022-09-24T14:05:02;18.90;9.60
67974;DHT22;54756;51.140;6.952;2022-09-24T14:07:03;18.80;10.80
67974;DHT22;54756;51.140;6.952;2022-09-24T14:11:23;18.60;12.90
67974;DHT22;54756;51.140;6.952;2022-09-24T14:13:24;18.50;13.70
67974;DHT22;54756;51.140;6.952;2022-09-24T14:15:24;18.50;14.30
67974;DHT22;54756;51.140;6.952;2022-09-24T14:17:25;18.40;14.60
67974;DHT22;54756;51.140;6.952;2022-09-24T14:19:26;18.40;15.80
67974;DHT22;54756;51.140;6.952;2022-09-24T14:21:34;18.30;16.40
67974;DHT22;54756;51.140;6.952;2022-09-24T14:23:38;18.30;16.90
67974;DHT22;54756;51.140;6.952;2022-09-24T14:25:39;18.30;19.10
67974;DHT22;54756;51.140;6.952;2022-09-24T14:27:44;18.40;17.90
67974;DHT22;54756;51.140;6.952;2022-09-24T14:29:48;18.40;18.00
67974;DHT22;54756;51.140;6.952;2022-09-24T14:31:56;18.40;18.70
67974;DHT22;54756;51.140;6.952;2022-09-24T14:34:00;18.40;19.20
67974;DHT22;54756;51.140;6.952;2022-09-24T14:36:02;18.40;20.00
67974;DHT22;54756;51.140;6.952;2022-09-24T14:38:12;18.40;20.50
67974;DHT22;54756;51.140;6.952;2022-09-24T14:40:15;18.40;21.60
67974;DHT22;54756;51.140;6.952;2022-09-24T14:42:27;18.40;21.70
67974;DHT22;54756;51.140;6.952;2022-09-24T14:44:28;18.40;22.90
67974;DHT22;54756;51.140;6.952;2022-09-24T14:46:43;18.40;22.50
67974;DHT22;54756;51.140;6.952;2022-09-24T14:48:48;18.40;23.00
67974;DHT22;54756;51.140;6.952;2022-09-24T14:50:48;18.40;23.40